createdAt,value
2022-11-25T00:05:09.094Z,18.65
2022-11-25T00:10:30.756Z,18.64
2022-11-25T00:15:52.506Z,18.62
2022-11-25T00:21:18.547Z,18.59
2022-11-25T00:26:40.498Z,18.57
2022-11-25T00:32:02.237Z,18.56
2022-11-25T00:37:23.968Z,18.54
2022-11-25T00:43:04.128Z,18.54
2022-11-25T00:48:25.861Z,18.52
2022-11-25T00:53:47.541Z,18.52
2022-11-25T00:59:09.663Z,18.50
2022-11-25T01:04:31.504Z,18.49
2022-11-25T01:09:53.197Z,18.49
2022-11-25T01:15:14.868Z,18.47
2022-11-25T01:20:36.507Z,18.46
2022-11-25T01:26:01.856Z,18.46
2022-11-25T01:31:25.676Z,18.43
2022-11-25T01:36:48.145Z,18.43
2022-11-25T01:42:09.860Z,18.41
2022-11-25T01:47:31.590Z,18.41
2022-11-25T01:52:55.780Z,18.41
2022-11-25T01:58:33.848Z,18.42
2022-11-25T02:03:59.230Z,18.38
2022-11-25T02:09:22.003Z,18.36
2022-11-25T02:14:45.883Z,18.37
2022-11-25T02:20:11.097Z,18.35
2022-11-25T02:25:35.820Z,18.36
2022-11-25T02:30:58.322Z,18.33
2022-11-25T02:36:22.791Z,18.33
2022-11-25T02:41:49.782Z,18.32
2022-11-25T02:47:11.500Z,18.30
2022-11-25T02:52:33.153Z,18.31
2022-11-25T02:57:54.878Z,18.28
2022-11-25T03:03:16.960Z,18.29
2022-11-25T03:08:38.783Z,18.27
2022-11-25T03:14:00.480Z,18.27
2022-11-25T03:19:22.160Z,18.25
2022-11-25T03:24:43.898Z,18.24
2022-11-25T03:30:08.414Z,18.24
2022-11-25T03:35:30.042Z,18.24
2022-11-25T03:40:51.673Z,18.22
2022-11-25T03:46:13.466Z,18.22
2022-11-25T03:51:35.759Z,18.20
2022-11-25T03:56:57.419Z,18.20
2022-11-25T04:02:19.106Z,18.19
2022-11-25T04:07:40.931Z,18.19
2022-11-25T04:13:02.665Z,18.18
2022-11-25T04:18:24.363Z,18.17
2022-11-25T04:23:46.107Z,18.18
2022-11-25T04:29:07.777Z,18.17
2022-11-25T04:34:29.459Z,18.14
2022-11-25T04:39:51.163Z,18.14
2022-11-25T04:45:23.871Z,18.14
2022-11-25T04:50:45.851Z,18.13
2022-11-25T04:56:08.208Z,18.13
2022-11-25T05:01:30.098Z,18.11
2022-11-25T05:06:51.899Z,18.11
2022-11-25T05:12:19.765Z,18.10
2022-11-25T05:17:41.442Z,18.10
2022-11-25T05:23:03.128Z,18.09
2022-11-25T05:28:24.843Z,18.09
2022-11-25T05:33:46.497Z,18.07
2022-11-25T05:39:08.164Z,18.06
2022-11-25T05:44:29.853Z,18.06
2022-11-25T05:49:51.494Z,18.05
2022-11-25T05:55:13.215Z,18.04
2022-11-25T06:00:35.307Z,18.04
2022-11-25T06:05:58.237Z,18.06
2022-11-25T06:11:20.028Z,18.31
2022-11-25T06:16:42.401Z,18.76
2022-11-25T06:22:04.287Z,19.19
2022-11-25T06:27:26.193Z,19.48
2022-11-25T06:32:48.315Z,19.63
2022-11-25T06:38:10.120Z,19.67
2022-11-25T06:43:32.887Z,19.64
2022-11-25T06:48:54.672Z,19.57
2022-11-25T06:54:16.494Z,19.48
2022-11-25T06:59:38.527Z,19.39
2022-11-25T07:05:00.216Z,19.31
2022-11-25T07:10:22.308Z,19.22
2022-11-25T07:15:44.001Z,19.14
2022-11-25T07:21:14.817Z,19.07
2022-11-25T07:26:38.596Z,18.98
2022-11-25T07:32:02.427Z,19.05
2022-11-25T07:37:27.845Z,19.32
2022-11-25T07:42:49.570Z,19.62
2022-11-25T07:48:11.211Z,19.69
2022-11-25T07:53:32.981Z,19.56
2022-11-25T07:58:55.704Z,19.34
2022-11-25T08:04:20.490Z,19.19
2022-11-25T08:09:42.670Z,19.09
2022-11-25T08:15:04.565Z,19.03
2022-11-25T08:20:26.293Z,19.05
2022-11-25T08:25:50.615Z,19.10
2022-11-25T08:31:21.809Z,19.20
2022-11-25T08:36:47.962Z,19.34
2022-11-25T08:42:10.590Z,19.50
2022-11-25T08:47:32.260Z,19.64
2022-11-25T08:52:54.002Z,19.72
2022-11-25T08:58:15.745Z,19.55
2022-11-25T09:03:40.682Z,19.18
2022-11-25T09:09:02.853Z,18.92
2022-11-25T09:14:24.647Z,18.76
2022-11-25T09:19:46.413Z,18.71
2022-11-25T09:25:08.425Z,18.76
2022-11-25T09:30:30.289Z,18.92
2022-11-25T09:35:52.092Z,19.00
2022-11-25T09:42:14.421Z,19.08
2022-11-25T09:47:57.272Z,19.15
2022-11-25T09:53:42.207Z,19.19
2022-11-25T09:59:27.141Z,19.18
2022-11-25T10:05:01.544Z,19.15
2022-11-25T10:10:29.169Z,19.13
2022-11-25T10:15:52.356Z,19.10
2022-11-25T10:21:14.091Z,19.07
2022-11-25T10:26:40.344Z,19.05
2022-11-25T10:32:23.110Z,19.05
2022-11-25T10:37:46.245Z,19.00
2022-11-25T10:43:14.559Z,19.01
2022-11-25T10:48:44.345Z,19.06
2022-11-25T10:54:13.225Z,19.04
2022-11-25T10:59:40.875Z,19.04
2022-11-25T11:05:08.249Z,19.11
2022-11-25T11:10:29.921Z,19.24
2022-11-25T11:15:53.260Z,19.37
2022-11-25T11:21:34.738Z,19.49
2022-11-25T11:27:16.542Z,19.53
2022-11-25T11:32:42.489Z,19.53
2022-11-25T11:38:38.275Z,19.51
2022-11-25T11:44:54.369Z,19.44
2022-11-25T11:50:27.106Z,19.36
2022-11-25T11:56:19.063Z,19.30
2022-11-25T12:01:59.498Z,19.25
2022-11-25T12:07:32.933Z,19.20
2022-11-25T12:13:23.401Z,19.11
2022-11-25T12:18:56.779Z,18.99
2022-11-25T12:24:55.904Z,18.93
2022-11-25T12:30:22.973Z,18.87
2022-11-25T12:36:26.721Z,18.83
2022-11-25T12:42:04.845Z,18.84
2022-11-25T12:47:27.170Z,18.82
2022-11-25T12:53:03.346Z,18.79
2022-11-25T12:58:27.526Z,18.73
2022-11-25T13:04:26.808Z,18.85
2022-11-25T13:10:00.353Z,19.04
2022-11-25T13:15:28.344Z,19.29
2022-11-25T13:20:52.137Z,19.55
2022-11-25T13:26:28.833Z,19.82
2022-11-25T13:32:05.574Z,20.02
2022-11-25T13:37:41.564Z,20.13
2022-11-25T13:43:03.417Z,20.14
2022-11-25T13:48:32.186Z,20.14
2022-11-25T13:54:01.310Z,20.09
2022-11-25T13:59:48.814Z,20.03
2022-11-25T14:05:32.166Z,19.92
2022-11-25T14:11:05.965Z,19.84
2022-11-25T14:16:45.998Z,19.74
2022-11-25T14:22:22.714Z,19.64
2022-11-25T14:27:50.889Z,19.55
2022-11-25T14:33:15.576Z,19.47
2022-11-25T14:38:46.108Z,19.40
2022-11-25T14:44:21.919Z,19.34
2022-11-25T14:55:37.014Z,19.20
2022-11-25T15:00:58.600Z,19.15
2022-11-25T15:06:21.229Z,19.10
2022-11-25T15:11:43.318Z,19.07
2022-11-25T15:17:27.937Z,19.10
2022-11-25T15:22:52.049Z,19.19
2022-11-25T15:28:16.905Z,19.35
2022-11-25T15:33:39.437Z,19.47
2022-11-25T15:39:33.648Z,19.60
2022-11-25T15:45:03.807Z,19.72
2022-11-25T15:50:32.726Z,19.75
2022-11-25T15:56:01.008Z,19.76
2022-11-25T16:01:24.652Z,19.72
2022-11-25T16:06:54.839Z,19.69
2022-11-25T16:12:17.897Z,19.64
2022-11-25T16:17:39.709Z,19.59
2022-11-25T16:23:07.129Z,19.51
2022-11-25T16:28:29.170Z,19.44
2022-11-25T16:34:09.540Z,19.37
2022-11-25T16:39:31.191Z,19.31
2022-11-25T16:44:52.940Z,19.27
2022-11-25T16:50:16.371Z,19.21
2022-11-25T16:55:39.952Z,19.18
2022-11-25T17:01:02.547Z,19.15
2022-11-25T17:06:26.462Z,19.11
2022-11-25T17:11:54.907Z,19.07
2022-11-25T17:17:24.452Z,19.06
2022-11-25T17:22:46.533Z,19.00
2022-11-25T17:28:15.332Z,18.97
2022-11-25T17:33:37.896Z,18.93
2022-11-25T17:38:59.691Z,18.98
2022-11-25T17:44:27.680Z,19.13
2022-11-25T17:49:49.746Z,19.34
2022-11-25T17:55:12.092Z,19.50
2022-11-25T18:00:35.152Z,19.63
2022-11-25T18:05:56.816Z,19.72
2022-11-25T18:11:20.495Z,19.79
2022-11-25T18:16:42.739Z,19.93
2022-11-25T18:22:18.763Z,20.07
2022-11-25T18:27:41.061Z,20.13
2022-11-25T18:33:05.673Z,20.14
2022-11-25T18:38:27.446Z,20.11
2022-11-25T18:43:49.250Z,20.07
2022-11-25T18:49:15.031Z,20.01
2022-11-25T18:54:36.876Z,19.91
2022-11-25T19:00:31.542Z,19.82
2022-11-25T19:05:40.344Z,19.73
2022-11-25T19:11:02.068Z,19.63
2022-11-25T19:16:24.501Z,19.57
2022-11-25T19:21:46.262Z,19.52
2022-11-25T19:27:17.725Z,19.52
2022-11-25T19:32:39.546Z,19.53
2022-11-25T19:38:01.560Z,19.61
2022-11-25T19:43:27.182Z,19.77
2022-11-25T19:48:49.036Z,20.10
2022-11-25T19:54:16.058Z,20.62
2022-11-25T19:59:37.932Z,21.14
2022-11-25T20:04:59.844Z,21.65
2022-11-25T20:10:27.621Z,22.02
2022-11-25T20:15:49.913Z,22.10
2022-11-25T20:21:21.120Z,22.11
2022-11-25T20:26:48.520Z,22.03
2022-11-25T20:32:22.631Z,21.92
2022-11-25T20:37:51.681Z,21.78
2022-11-25T20:43:23.636Z,21.67
2022-11-25T20:48:46.193Z,21.51
2022-11-25T20:54:11.812Z,21.39
2022-11-25T20:59:33.793Z,21.26
2022-11-25T21:04:55.525Z,21.13
2022-11-25T21:10:29.108Z,21.03
2022-11-25T21:15:54.757Z,20.90
2022-11-25T21:21:30.129Z,20.81
2022-11-25T21:26:52.366Z,20.70
2022-11-25T21:32:25.978Z,20.63
2022-11-25T21:37:47.891Z,20.53
2022-11-25T21:43:22.054Z,20.47
2022-11-25T21:48:44.019Z,20.36
2022-11-25T21:54:05.925Z,20.28
2022-11-25T21:59:30.188Z,20.21
2022-11-25T22:04:52.317Z,20.13
2022-11-25T22:10:16.364Z,20.07
2022-11-25T22:15:38.122Z,20.01
2022-11-25T22:20:59.819Z,19.94
2022-11-25T22:26:32.374Z,19.88
2022-11-25T22:31:54.070Z,19.81
2022-11-25T22:37:18.350Z,19.77
2022-11-25T22:42:42.819Z,19.71
2022-11-25T22:48:06.222Z,19.66
2022-11-25T22:53:28.475Z,19.61
2022-11-25T22:58:50.207Z,19.58
2022-11-25T23:04:20.002Z,19.54
2022-11-25T23:09:42.215Z,19.49
2022-11-25T23:15:04.130Z,19.45
2022-11-25T23:20:37.552Z,19.44
2022-11-25T23:25:59.708Z,19.38
2022-11-25T23:31:21.596Z,19.35
2022-11-25T23:36:46.466Z,19.31
2022-11-25T23:42:18.963Z,19.29
2022-11-25T23:47:42.435Z,19.24
2022-11-25T23:53:07.376Z,19.22
2022-11-25T23:58:29.247Z,19.18
